createdAt,value
2018-08-20T00:01:49.001Z,50.10
2018-08-20T00:04:17.266Z,50.00
2018-08-20T00:06:57.677Z,50.50
2018-08-20T00:09:38.114Z,50.30
2018-08-20T00:12:08.391Z,50.20
2018-08-20T00:14:36.835Z,50.20
2018-08-20T00:17:05.332Z,50.00
2018-08-20T00:19:33.676Z,50.20
2018-08-20T00:22:01.864Z,50.50
2018-08-20T00:24:29.964Z,50.50
2018-08-20T00:26:59.596Z,50.40
2018-08-20T00:29:27.885Z,50.50
2018-08-20T00:31:56.323Z,49.90
2018-08-20T00:34:24.494Z,50.60
2018-08-20T00:36:52.708Z,50.90
2018-08-20T00:39:21.012Z,50.40
2018-08-20T00:41:49.606Z,50.70
2018-08-20T00:44:17.770Z,50.90
2018-08-20T00:46:46.391Z,51.30
2018-08-20T00:49:15.854Z,51.40
2018-08-20T00:51:44.426Z,51.50
2018-08-20T00:54:12.684Z,51.90
2018-08-20T00:56:41.196Z,51.80
2018-08-20T00:59:09.699Z,51.70
2018-08-20T01:01:37.828Z,51.50
2018-08-20T01:04:06.141Z,51.80
2018-08-20T01:06:34.319Z,51.50
2018-08-20T01:09:03.170Z,51.50
2018-08-20T01:11:31.778Z,51.90
2018-08-20T01:14:00.137Z,52.00
2018-08-20T01:16:28.333Z,52.20
2018-08-20T01:18:56.721Z,52.20
2018-08-20T01:21:25.020Z,52.30
2018-08-20T01:23:53.349Z,52.40
2018-08-20T01:26:21.473Z,52.20
2018-08-20T01:28:49.641Z,52.60
2018-08-20T01:31:17.997Z,52.80
2018-08-20T01:33:46.363Z,52.60
2018-08-20T01:36:15.299Z,53.00
2018-08-20T01:38:43.679Z,53.90
2018-08-20T01:41:11.857Z,53.60
2018-08-20T01:43:40.123Z,53.60
2018-08-20T01:46:08.802Z,53.50
2018-08-20T01:48:37.029Z,53.70
2018-08-20T01:51:05.201Z,53.70
2018-08-20T01:53:33.477Z,53.90
2018-08-20T01:56:01.821Z,54.10
2018-08-20T01:58:30.136Z,53.90
2018-08-20T02:00:58.309Z,53.90
2018-08-20T02:03:26.859Z,53.80
2018-08-20T02:05:55.035Z,53.80
2018-08-20T02:08:23.129Z,53.70
2018-08-20T02:10:51.652Z,53.60
2018-08-20T02:13:20.758Z,53.50
2018-08-20T02:15:49.317Z,53.90
2018-08-20T02:18:17.627Z,53.80
2018-08-20T02:20:45.777Z,53.90
2018-08-20T02:23:14.421Z,53.90
2018-08-20T02:25:42.563Z,53.60
2018-08-20T02:28:10.761Z,54.30
2018-08-20T02:30:39.026Z,54.50
2018-08-20T02:33:07.633Z,54.40
2018-08-20T02:35:36.125Z,54.80
2018-08-20T02:38:04.848Z,55.00
2018-08-20T02:40:33.706Z,55.00
2018-08-20T02:43:02.012Z,55.00
2018-08-20T02:45:30.632Z,54.90
2018-08-20T02:47:59.004Z,54.70
2018-08-20T02:50:27.162Z,55.50
2018-08-20T02:52:55.484Z,55.80
2018-08-20T02:55:23.894Z,56.00
2018-08-20T02:57:52.012Z,56.00
2018-08-20T03:00:20.630Z,56.10
2018-08-20T03:02:48.936Z,55.90
2018-08-20T03:05:18.121Z,56.30
2018-08-20T03:07:46.306Z,56.60
2018-08-20T03:10:14.772Z,56.70
2018-08-20T03:12:43.329Z,56.70
2018-08-20T03:15:11.716Z,56.80
2018-08-20T03:17:40.425Z,56.80
2018-08-20T03:20:08.877Z,57.00
2018-08-20T03:22:37.046Z,57.00
2018-08-20T03:25:06.115Z,57.20
2018-08-20T03:27:34.872Z,57.30
2018-08-20T03:30:04.553Z,57.40
2018-08-20T03:32:32.813Z,58.30
2018-08-20T03:35:01.292Z,57.70
2018-08-20T03:37:33.357Z,57.90
2018-08-20T03:40:02.169Z,57.90
2018-08-20T03:42:30.407Z,58.00
2018-08-20T03:44:58.839Z,57.90
2018-08-20T03:47:27.237Z,57.90
2018-08-20T03:49:55.672Z,57.90
2018-08-20T03:52:24.777Z,58.10
2018-08-20T03:54:53.705Z,58.20
2018-08-20T03:57:22.777Z,58.20
2018-08-20T03:59:50.990Z,58.10
2018-08-20T04:02:19.067Z,58.20
2018-08-20T04:04:47.240Z,58.40
2018-08-20T04:07:15.344Z,58.90
2018-08-20T04:09:43.489Z,58.30
2018-08-20T04:12:11.922Z,58.60
2018-08-20T04:14:40.068Z,58.50
2018-08-20T04:17:08.461Z,58.60
2018-08-20T04:19:36.613Z,58.50
2018-08-20T04:22:04.804Z,58.70
2018-08-20T04:24:33.204Z,58.60
2018-08-20T04:27:01.818Z,58.70
2018-08-20T04:29:30.102Z,58.70
2018-08-20T04:31:58.512Z,58.90
2018-08-20T04:34:27.108Z,59.60
2018-08-20T04:36:55.224Z,58.90
2018-08-20T04:39:23.345Z,59.00
2018-08-20T04:41:51.640Z,59.00
2018-08-20T04:44:19.724Z,59.20
2018-08-20T04:46:47.890Z,59.20
2018-08-20T04:49:16.025Z,59.10
2018-08-20T04:51:44.207Z,59.30
2018-08-20T04:54:12.526Z,59.50
2018-08-20T04:56:40.902Z,59.70
2018-08-20T04:59:08.970Z,59.70
2018-08-20T05:01:37.290Z,59.00
2018-08-20T05:04:05.768Z,58.90
2018-08-20T05:06:34.032Z,58.90
2018-08-20T05:09:02.331Z,58.80
2018-08-20T05:11:30.641Z,58.60
2018-08-20T05:13:58.849Z,58.60
2018-08-20T05:16:26.999Z,58.50
2018-08-20T05:18:55.244Z,58.20
2018-08-20T05:21:23.450Z,58.30
2018-08-20T05:23:51.585Z,58.10
2018-08-20T05:26:20.369Z,57.90
2018-08-20T05:28:48.555Z,57.60
2018-08-20T05:31:16.692Z,57.50
2018-08-20T05:33:44.858Z,57.60
2018-08-20T05:36:13.093Z,57.50
2018-08-20T05:38:41.158Z,57.40
2018-08-20T05:41:09.375Z,57.30
2018-08-20T05:43:37.502Z,57.20
2018-08-20T05:46:06.085Z,56.90
2018-08-20T05:48:34.344Z,56.60
2018-08-20T05:51:02.501Z,55.60
2018-08-20T05:53:30.826Z,53.40
2018-08-20T05:55:59.041Z,50.50
2018-08-20T05:58:27.235Z,49.00
2018-08-20T06:00:55.662Z,47.50
2018-08-20T06:03:23.921Z,45.70
2018-08-20T06:05:52.321Z,44.40
2018-08-20T06:08:20.464Z,43.20
2018-08-20T06:10:48.797Z,41.40
2018-08-20T06:13:17.064Z,40.20
2018-08-20T06:15:45.252Z,39.50
2018-08-20T06:18:13.468Z,38.30
2018-08-20T06:20:41.750Z,37.70
2018-08-20T06:23:10.110Z,37.20
2018-08-20T06:25:39.000Z,37.50
2018-08-20T06:28:07.254Z,37.00
2018-08-20T06:30:35.501Z,36.70
2018-08-20T06:33:04.444Z,36.00
2018-08-20T06:35:32.572Z,35.20
2018-08-20T06:38:01.079Z,35.00
2018-08-20T06:40:29.982Z,34.90
2018-08-20T06:42:58.129Z,35.10
2018-08-20T06:45:26.221Z,34.10
2018-08-20T06:47:54.389Z,33.50
2018-08-20T06:50:22.653Z,33.10
2018-08-20T06:52:50.811Z,33.50
2018-08-20T06:55:18.901Z,32.90
2018-08-20T06:57:47.106Z,32.70
2018-08-20T07:00:15.451Z,32.40
2018-08-20T07:02:43.542Z,32.60
2018-08-20T07:05:18.365Z,31.70
2018-08-20T07:07:46.678Z,32.00
2018-08-20T07:10:14.979Z,31.20
2018-08-20T07:12:43.236Z,31.30
2018-08-20T07:15:14.346Z,30.60
2018-08-20T07:17:42.636Z,30.80
2018-08-20T07:20:12.954Z,30.40
2018-08-20T07:22:41.200Z,29.80
2018-08-20T07:25:09.455Z,29.90
2018-08-20T07:27:38.000Z,30.30
2018-08-20T07:30:09.751Z,29.90
2018-08-20T07:32:37.967Z,29.60
2018-08-20T07:35:06.577Z,29.90
2018-08-20T07:37:35.435Z,29.30
2018-08-20T07:40:05.139Z,29.40
2018-08-20T07:42:33.448Z,29.40
2018-08-20T07:45:01.557Z,28.90
2018-08-20T07:47:29.706Z,28.10
2018-08-20T07:52:26.071Z,26.30
2018-08-20T07:54:54.193Z,25.70
2018-08-20T07:57:22.364Z,25.50
2018-08-20T07:59:50.487Z,25.80
2018-08-20T08:02:18.728Z,25.10
2018-08-20T08:04:46.925Z,25.70
2018-08-20T08:07:15.208Z,24.70
2018-08-20T08:09:43.408Z,24.40
2018-08-20T08:12:11.584Z,24.70
2018-08-20T08:14:39.780Z,24.30
2018-08-20T08:17:08.723Z,23.30
2018-08-20T08:19:36.937Z,22.70
2018-08-20T08:22:05.307Z,23.00
2018-08-20T08:24:33.562Z,23.00
2018-08-20T08:27:02.707Z,23.10
2018-08-20T08:29:30.968Z,22.80
2018-08-20T08:31:59.433Z,22.60
2018-08-20T08:34:27.656Z,23.60
2018-08-20T08:36:55.850Z,24.30
2018-08-20T08:39:24.000Z,23.90
2018-08-20T08:41:52.216Z,24.20
2018-08-20T08:44:20.410Z,23.60
2018-08-20T08:46:48.656Z,24.00
2018-08-20T08:49:16.938Z,23.10
2018-08-20T08:51:45.117Z,22.50
2018-08-20T08:54:13.390Z,22.70
2018-08-20T08:56:41.631Z,23.00
2018-08-20T08:59:10.130Z,23.30
2018-08-20T09:01:38.296Z,22.60
2018-08-20T09:04:06.869Z,22.60
2018-08-20T09:06:35.043Z,22.80
2018-08-20T09:09:03.705Z,22.50
2018-08-20T09:11:31.915Z,22.50
2018-08-20T09:14:00.049Z,22.10
2018-08-20T09:16:28.190Z,23.40
2018-08-20T09:18:56.275Z,22.60
2018-08-20T09:21:24.501Z,22.60
2018-08-20T09:23:52.745Z,24.60
2018-08-20T09:26:21.139Z,26.10
2018-08-20T09:28:49.289Z,27.80
2018-08-20T09:31:17.519Z,29.20
2018-08-20T09:33:45.730Z,30.30
2018-08-20T09:36:13.869Z,31.70
2018-08-20T09:38:41.983Z,34.00
2018-08-20T09:41:10.230Z,34.00
2018-08-20T09:43:38.491Z,34.90
2018-08-20T09:46:06.741Z,35.80
2018-08-20T09:48:34.976Z,36.50
2018-08-20T09:51:03.159Z,37.40
2018-08-20T09:53:31.305Z,37.90
2018-08-20T09:55:59.605Z,38.30
2018-08-20T09:58:27.862Z,38.70
2018-08-20T10:00:56.028Z,39.10
2018-08-20T10:03:24.219Z,39.80
2018-08-20T10:05:52.551Z,40.10
2018-08-20T10:08:20.815Z,40.50
2018-08-20T10:10:48.944Z,41.00
2018-08-20T10:13:17.222Z,40.90
2018-08-20T10:15:45.442Z,41.10
2018-08-20T10:18:14.338Z,41.60
2018-08-20T10:20:42.545Z,41.80
2018-08-20T10:23:10.667Z,41.80
2018-08-20T10:25:38.782Z,42.00
2018-08-20T10:28:07.032Z,42.10
2018-08-20T10:30:35.306Z,41.90
2018-08-20T10:33:03.456Z,42.30
2018-08-20T10:35:31.577Z,42.20
2018-08-20T10:38:00.044Z,42.10
2018-08-20T10:40:28.248Z,42.20
2018-08-20T10:42:56.403Z,42.00
2018-08-20T10:45:30.251Z,41.70
2018-08-20T10:47:58.423Z,41.50
2018-08-20T10:50:26.587Z,41.10
2018-08-20T10:52:54.711Z,40.80
2018-08-20T10:55:22.879Z,41.30
2018-08-20T10:57:50.986Z,41.50
2018-08-20T11:00:19.194Z,40.80
2018-08-20T11:02:47.272Z,39.90
2018-08-20T11:05:17.774Z,38.70
2018-08-20T11:07:46.269Z,37.60
2018-08-20T11:10:14.581Z,36.30
2018-08-20T11:12:42.646Z,35.60
2018-08-20T11:15:11.631Z,35.10
2018-08-20T11:17:39.875Z,35.70
2018-08-20T11:20:13.268Z,36.00
2018-08-20T11:22:41.885Z,36.60
2018-08-20T11:25:11.017Z,36.60
2018-08-20T11:27:39.336Z,36.20
2018-08-20T11:30:09.960Z,35.50
2018-08-20T11:32:38.227Z,34.70
2018-08-20T11:35:07.249Z,34.10
2018-08-20T11:37:35.445Z,33.20
2018-08-20T11:40:04.380Z,31.90
2018-08-20T11:42:32.614Z,31.30
2018-08-20T11:45:00.785Z,31.00
2018-08-20T11:47:28.977Z,30.80
2018-08-20T11:49:57.735Z,31.10
2018-08-20T11:52:25.969Z,29.90
2018-08-20T11:54:54.138Z,28.60
2018-08-20T11:57:22.254Z,27.30
2018-08-20T11:59:50.360Z,27.60
2018-08-20T12:02:18.677Z,28.60
2018-08-20T12:04:46.857Z,29.80
2018-08-20T12:07:15.197Z,30.70
2018-08-20T12:09:43.389Z,31.20
2018-08-20T12:12:11.538Z,31.60
2018-08-20T12:14:40.737Z,32.80
2018-08-20T12:17:08.930Z,33.60
2018-08-20T12:19:36.991Z,33.40
2018-08-20T12:22:05.254Z,32.30
2018-08-20T12:24:33.532Z,32.20
2018-08-20T12:27:01.739Z,33.30
2018-08-20T12:29:29.883Z,34.90
2018-08-20T12:31:58.140Z,35.70
2018-08-20T12:34:26.293Z,37.00
2018-08-20T12:36:54.377Z,37.60
2018-08-20T12:39:22.658Z,38.20
2018-08-20T12:41:50.810Z,38.50
2018-08-20T12:44:18.951Z,39.50
2018-08-20T12:46:47.161Z,38.70
2018-08-20T12:49:15.283Z,38.80
2018-08-20T12:51:43.441Z,39.00
2018-08-20T12:54:11.568Z,39.20
2018-08-20T12:56:40.451Z,39.60
2018-08-20T12:59:08.745Z,39.90
2018-08-20T13:01:36.935Z,40.20
2018-08-20T13:04:05.181Z,40.20
2018-08-20T13:06:33.303Z,40.20
2018-08-20T13:09:01.543Z,39.90
2018-08-20T13:11:29.734Z,40.30
2018-08-20T13:13:57.851Z,40.70
2018-08-20T13:16:26.119Z,40.70
2018-08-20T13:18:54.240Z,41.10
2018-08-20T13:21:22.381Z,41.80
2018-08-20T13:23:50.526Z,41.80
2018-08-20T13:26:18.668Z,42.00
2018-08-20T13:28:49.792Z,42.10
2018-08-20T13:31:17.952Z,41.90
2018-08-20T13:33:46.234Z,41.50
2018-08-20T13:36:14.472Z,41.80
2018-08-20T13:38:42.694Z,41.70
2018-08-20T13:41:10.787Z,42.20
2018-08-20T13:43:39.000Z,41.40
2018-08-20T13:46:07.236Z,41.30
2018-08-20T13:48:35.530Z,41.50
2018-08-20T13:51:03.728Z,41.10
2018-08-20T13:53:31.930Z,40.80
2018-08-20T13:56:00.084Z,40.60
2018-08-20T13:58:28.330Z,40.40
2018-08-20T14:00:56.581Z,40.60
2018-08-20T14:03:24.866Z,40.50
2018-08-20T14:05:52.957Z,40.30
2018-08-20T14:08:21.335Z,39.90
2018-08-20T14:10:49.463Z,39.30
2018-08-20T14:13:17.608Z,39.90
2018-08-20T14:15:45.957Z,39.80
2018-08-20T14:18:14.161Z,40.00
2018-08-20T14:21:25.344Z,39.00
2018-08-20T14:23:53.590Z,40.10
2018-08-20T14:26:21.779Z,40.20
2018-08-20T14:28:50.014Z,40.60
2018-08-20T14:31:18.305Z,40.80
2018-08-20T14:33:46.557Z,40.50
2018-08-20T14:36:14.693Z,40.80
2018-08-20T14:38:42.879Z,40.50
2018-08-20T14:41:11.090Z,41.00
2018-08-20T14:43:40.063Z,40.30
2018-08-20T14:46:13.967Z,40.80
2018-08-20T14:48:42.111Z,41.10
2018-08-20T14:51:10.251Z,42.10
2018-08-20T14:53:38.417Z,43.20
2018-08-20T14:56:06.545Z,43.70
2018-08-20T14:58:34.785Z,44.10
2018-08-20T15:01:02.957Z,44.50
2018-08-20T15:03:31.473Z,44.60
2018-08-20T15:05:59.641Z,44.50
2018-08-20T15:08:27.755Z,44.60
2018-08-20T15:10:55.901Z,44.70
2018-08-20T15:13:24.017Z,44.70
2018-08-20T15:15:52.162Z,44.90
2018-08-20T15:18:20.392Z,45.10
2018-08-20T15:20:48.597Z,45.20
2018-08-20T15:23:16.751Z,44.80
2018-08-20T15:25:44.837Z,45.20
2018-08-20T15:28:12.928Z,44.70
2018-08-20T15:30:41.058Z,44.10
2018-08-20T15:33:09.208Z,44.60
2018-08-20T15:35:37.448Z,44.30
2018-08-20T15:38:05.621Z,44.10
2018-08-20T15:40:33.704Z,44.30
2018-08-20T15:43:01.791Z,44.20
2018-08-20T15:45:29.934Z,44.10
2018-08-20T15:47:58.074Z,43.70
2018-08-20T15:50:26.225Z,43.70
2018-08-20T15:52:54.703Z,44.20
2018-08-20T15:55:22.786Z,44.40
2018-08-20T15:57:50.913Z,44.60
2018-08-20T16:00:19.065Z,44.70
2018-08-20T16:02:47.201Z,45.00
2018-08-20T16:05:15.470Z,44.60
2018-08-20T16:07:43.677Z,44.40
2018-08-20T16:10:12.197Z,44.60
2018-08-20T16:12:41.172Z,44.60
2018-08-20T16:15:09.845Z,45.00
2018-08-20T16:17:38.239Z,45.00
2018-08-20T16:20:07.093Z,45.20
2018-08-20T16:22:35.447Z,45.20
2018-08-20T16:25:04.638Z,45.30
2018-08-20T16:27:33.025Z,45.50
2018-08-20T16:30:02.041Z,45.60
2018-08-20T16:32:30.141Z,45.50
2018-08-20T16:34:58.336Z,45.70
2018-08-20T16:37:26.645Z,45.80
2018-08-20T16:39:54.817Z,45.80
2018-08-20T16:42:22.920Z,45.80
2018-08-20T16:44:51.205Z,45.70
2018-08-20T16:47:19.301Z,45.90
2018-08-20T16:49:47.517Z,46.10
2018-08-20T16:52:16.564Z,46.10
2018-08-20T16:54:44.752Z,46.20
2018-08-20T16:57:12.951Z,46.20
2018-08-20T16:59:41.257Z,46.60
2018-08-20T17:02:14.957Z,46.70
2018-08-20T17:04:43.236Z,46.90
2018-08-20T17:07:11.743Z,47.20
2018-08-20T17:09:40.060Z,47.30
2018-08-20T17:12:08.911Z,47.40
2018-08-20T17:14:37.218Z,47.60
2018-08-20T17:17:05.711Z,47.60
2018-08-20T17:19:34.238Z,47.80
2018-08-20T17:22:02.640Z,47.90
2018-08-20T17:24:36.836Z,48.00
2018-08-20T17:27:05.197Z,47.90
2018-08-20T17:29:33.446Z,48.00
2018-08-20T17:32:03.051Z,48.10
2018-08-20T17:34:31.267Z,48.50
2018-08-20T17:36:59.644Z,49.50
2018-08-20T17:39:27.862Z,49.00
2018-08-20T17:41:56.688Z,49.20
2018-08-20T17:44:24.885Z,49.80
2018-08-20T17:46:53.056Z,49.00
2018-08-20T17:49:26.985Z,49.00
2018-08-20T17:51:55.132Z,49.10
2018-08-20T17:54:23.562Z,49.20
2018-08-20T17:56:51.664Z,49.50
2018-08-20T17:59:22.510Z,49.70
2018-08-20T18:01:50.832Z,49.90
2018-08-20T18:04:19.009Z,50.10
2018-08-20T18:06:55.330Z,50.20
2018-08-20T18:09:23.536Z,50.40
2018-08-20T18:11:52.858Z,50.50
2018-08-20T18:14:22.202Z,50.60
2018-08-20T18:16:50.519Z,50.50
2018-08-20T18:19:18.755Z,50.70
2018-08-20T18:21:47.275Z,50.90
2018-08-20T18:24:18.431Z,51.10
2018-08-20T18:26:48.095Z,51.10
2018-08-20T18:29:16.676Z,51.30
2018-08-20T18:31:44.933Z,51.60
2018-08-20T18:34:13.161Z,51.70
2018-08-20T18:36:41.425Z,51.80
2018-08-20T18:39:12.115Z,51.90
2018-08-20T18:42:15.059Z,52.10
2018-08-20T18:44:44.195Z,52.20
2018-08-20T18:47:13.855Z,52.50
2018-08-20T18:49:50.306Z,52.60
2018-08-20T18:52:20.341Z,52.70
2018-08-20T18:54:56.123Z,52.90
2018-08-20T18:57:27.535Z,52.90
2018-08-20T18:59:58.027Z,53.10
2018-08-20T19:02:55.885Z,53.20
2018-08-20T19:05:24.190Z,53.20
2018-08-20T19:07:52.470Z,53.30
2018-08-20T19:10:31.382Z,52.70
2018-08-20T19:13:00.396Z,54.00
2018-08-20T19:15:36.484Z,53.60
2018-08-20T19:18:06.888Z,53.70
2018-08-20T19:20:35.388Z,53.80
2018-08-20T19:23:03.626Z,53.90
2018-08-20T19:25:31.880Z,54.00
2018-08-20T19:28:05.914Z,54.00
2018-08-20T19:30:34.178Z,54.10
2018-08-20T19:33:04.136Z,54.20
2018-08-20T19:35:32.563Z,54.40
2018-08-20T19:38:00.909Z,54.50
2018-08-20T19:40:29.124Z,54.60
2018-08-20T19:42:57.256Z,54.80
2018-08-20T19:45:29.913Z,55.20
2018-08-20T19:47:58.116Z,56.20
2018-08-20T19:50:26.273Z,56.20
2018-08-20T19:52:54.585Z,56.50
2018-08-20T19:55:22.789Z,57.00
2018-08-20T19:57:51.255Z,57.20
2018-08-20T20:00:19.465Z,57.50
2018-08-20T20:02:47.633Z,57.80
2018-08-20T20:05:15.842Z,58.10
2018-08-20T20:07:55.685Z,58.20
2018-08-20T20:10:23.952Z,59.10
2018-08-20T20:12:54.716Z,58.60
2018-08-20T20:15:25.799Z,58.70
2018-08-20T20:17:55.333Z,58.80
2018-08-20T20:20:24.217Z,58.90
2018-08-20T20:22:52.815Z,59.10
2018-08-20T20:25:21.023Z,59.10
2018-08-20T20:27:50.647Z,59.20
2018-08-20T20:30:18.805Z,59.20
2018-08-20T20:32:46.984Z,59.20
2018-08-20T20:35:15.341Z,59.30
2018-08-20T20:37:43.499Z,59.50
2018-08-20T20:40:11.694Z,59.50
2018-08-20T20:42:40.552Z,59.60
2018-08-20T20:45:08.889Z,59.50
2018-08-20T20:47:37.217Z,59.80
2018-08-20T20:50:05.527Z,59.80
2018-08-20T20:52:33.683Z,59.80
2018-08-20T20:55:02.116Z,59.80
2018-08-20T20:57:30.298Z,60.70
2018-08-20T20:59:59.316Z,59.90
2018-08-20T21:02:27.557Z,60.10
2018-08-20T21:05:00.367Z,60.30
2018-08-20T21:07:32.724Z,60.30
2018-08-20T21:10:01.534Z,60.40
2018-08-20T21:12:30.766Z,60.50
2018-08-20T21:14:59.028Z,60.60
2018-08-20T21:17:27.296Z,60.80
2018-08-20T21:19:55.675Z,60.90
2018-08-20T21:22:24.022Z,61.40
2018-08-20T21:24:52.296Z,61.00
2018-08-20T21:27:27.475Z,61.20
2018-08-20T21:29:59.364Z,61.20
2018-08-20T21:32:27.848Z,61.30
2018-08-20T21:34:56.220Z,61.40
2018-08-20T21:37:24.460Z,61.50
2018-08-20T21:39:52.797Z,61.40
2018-08-20T21:42:33.098Z,61.50
2018-08-20T21:45:01.431Z,61.50
2018-08-20T21:47:30.688Z,61.60
2018-08-20T21:49:58.840Z,61.80
2018-08-20T21:52:27.010Z,62.70
2018-08-20T21:54:55.812Z,62.00
2018-08-20T21:57:24.206Z,62.00
2018-08-20T22:00:06.828Z,62.30
2018-08-20T22:02:35.324Z,62.70
2018-08-20T22:05:05.465Z,62.50
2018-08-20T22:07:35.712Z,62.70
2018-08-20T22:10:04.833Z,62.70
2018-08-20T22:12:32.972Z,62.90
2018-08-20T22:15:01.177Z,63.00
2018-08-20T22:17:30.410Z,63.00
2018-08-20T22:19:59.345Z,62.90
2018-08-20T22:22:27.874Z,63.00
2018-08-20T22:24:59.164Z,63.20
2018-08-20T22:27:28.620Z,63.30
2018-08-20T22:30:01.489Z,63.30
2018-08-20T22:32:30.221Z,63.50
2018-08-20T22:34:58.859Z,63.70
2018-08-20T22:37:27.157Z,63.80
2018-08-20T22:40:01.024Z,63.80
2018-08-20T22:42:45.435Z,64.90
2018-08-20T22:45:16.117Z,64.10
2018-08-20T22:47:46.361Z,64.10
2018-08-20T22:50:14.716Z,64.30
2018-08-20T22:52:47.853Z,64.30
2018-08-20T22:55:17.661Z,64.40
2018-08-20T22:58:05.117Z,64.50
2018-08-20T23:00:33.632Z,64.40
2018-08-20T23:03:01.821Z,64.30
2018-08-20T23:05:31.531Z,64.50
2018-08-20T23:08:11.570Z,64.70
2018-08-20T23:10:42.225Z,64.60
2018-08-20T23:13:10.511Z,64.70
2018-08-20T23:15:38.879Z,64.90
2018-08-20T23:18:07.487Z,65.00
2018-08-20T23:20:35.767Z,65.00
2018-08-20T23:23:04.175Z,65.20
2018-08-20T23:25:32.398Z,65.20
2018-08-20T23:28:00.633Z,65.20
2018-08-20T23:30:28.804Z,65.30
2018-08-20T23:32:57.692Z,65.40
2018-08-20T23:35:25.937Z,65.30
2018-08-20T23:37:54.186Z,65.30
2018-08-20T23:40:22.547Z,65.40
2018-08-20T23:42:50.944Z,65.50
2018-08-20T23:45:19.164Z,65.50
2018-08-20T23:47:47.559Z,65.50
2018-08-20T23:50:15.735Z,65.70
2018-08-20T23:52:43.878Z,65.80
2018-08-20T23:55:12.012Z,65.90
2018-08-20T23:57:40.377Z,66.00
